»·PEaware :: N1718G KSBA-KPSP

N1718G :: KSBA-KPSP

FLIGHT INFORMATION

Flight Status: Arrived
Operator: Privately registered:
United States
More flights under this callsign
Pilot: Spencer M. (27733)
Aircraft: CESSNA 206 STATIONAIR
(C206)
More flights by this aircraft type
Origin: KSBA Santa Barbara Mun
United States
Destination: KPSP Palm Springs Intl
United States
More flights between these airports :: More routes between these airports
Route: +KSBA-KPSP
File this flight plan on PilotEdge
Remarks:
Altitude:
(Current/Filed)
7,500ft
Speed:
(Current/Filed)
140kts
Departed: 17-Feb-20 12:39 PM
Arrived: 17-Feb-20 01:51 PM
Distance/Time
Traveled:
170nm/1:12
Distance/Time
To Go:
Arrived

Flight Plot

Page will automatically refresh every two minutes.


Map Options




Map Legend


Flown Route
Filed Route
Departure Airport
Arrival Airport
Navaid (VOR, NDB)
Fix

Horizontal Profiles

Position Reports

Time Latitude Longitude Heading Altitude Ground
Speed
17-Feb-20 12:10 34.432569 -119.835086 71 14ft 0kts
17-Feb-20 12:11 34.432569 -119.835086 71 14ft 0kts
17-Feb-20 12:11 34.432569 -119.835086 71 14ft 0kts
17-Feb-20 12:12 34.432569 -119.835086 71 14ft 0kts
17-Feb-20 12:14 34.432569 -119.835086 71 14ft 0kts
17-Feb-20 12:14 34.432569 -119.835086 71 14ft 0kts
17-Feb-20 12:15 34.432569 -119.835086 71 14ft 0kts
17-Feb-20 12:16 34.432569 -119.835086 71 14ft 0kts
17-Feb-20 12:17 34.432569 -119.835086 71 14ft 0kts
17-Feb-20 12:18 34.432569 -119.835086 71 14ft 0kts
17-Feb-20 12:19 34.432569 -119.835086 71 14ft 0kts
17-Feb-20 12:20 34.432569 -119.835086 71 14ft 0kts
17-Feb-20 12:21 34.432569 -119.835086 71 14ft 0kts
17-Feb-20 12:22 34.432569 -119.835086 71 14ft 0kts
17-Feb-20 12:23 34.432569 -119.835086 71 14ft 0kts
17-Feb-20 12:24 34.432569 -119.835086 71 14ft 0kts
17-Feb-20 12:25 34.432569 -119.835086 71 14ft 0kts
17-Feb-20 12:26 34.432569 -119.835086 71 14ft 0kts
17-Feb-20 12:27 34.432343 -119.835529 220 14ft 7kts
17-Feb-20 12:28 34.431178 -119.838251 251 14ft 10kts
17-Feb-20 12:29 34.430902 -119.839711 241 14ft 0kts
17-Feb-20 12:30 34.430902 -119.839711 241 14ft 0kts
17-Feb-20 12:31 34.430902 -119.839711 241 14ft 0kts
17-Feb-20 12:32 34.430873 -119.839763 234 14ft 0kts
17-Feb-20 12:33 34.430873 -119.839763 234 14ft 0kts
17-Feb-20 12:34 34.430873 -119.839763 234 14ft 0kts
17-Feb-20 12:35 34.430873 -119.839763 234 14ft 0kts
17-Feb-20 12:36 34.430873 -119.839763 234 14ft 0kts
17-Feb-20 12:37 34.430873 -119.839763 234 14ft 0kts
17-Feb-20 12:38 34.419834 -119.836926 163 144ft 114kts
17-Feb-20 12:39 34.389242 -119.822342 162 701ft 120kts
17-Feb-20 12:40 34.376206 -119.789625 94 1226ft 123kts
17-Feb-20 12:41 34.373941 -119.747779 92 1637ft 134kts
17-Feb-20 12:42 34.374715 -119.703693 88 2260ft 132kts
17-Feb-20 12:43 34.374510 -119.659318 78 2827ft 133kts
17-Feb-20 12:44 34.377414 -119.614883 99 3380ft 133kts
17-Feb-20 12:45 34.371647 -119.570313 103 3919ft 135kts
17-Feb-20 12:46 34.365359 -119.525243 100 4445ft 136kts
17-Feb-20 12:47 34.358343 -119.477570 99 4602ft 152kts
17-Feb-20 12:48 34.351395 -119.431530 99 5380ft 127kts
17-Feb-20 12:49 34.345302 -119.391056 99 6270ft 118kts
17-Feb-20 12:50 34.339538 -119.352649 99 7165ft 114kts
17-Feb-20 12:51 34.333144 -119.309998 100 7477ft 152kts
17-Feb-20 12:52 34.325195 -119.257310 100 7472ft 159kts
17-Feb-20 12:53 34.317169 -119.204050 100 7472ft 161kts
17-Feb-20 12:54 34.308313 -119.150895 102 7472ft 161kts
17-Feb-20 12:55 34.298753 -119.097885 102 7472ft 161kts
17-Feb-20 12:56 34.289208 -119.044909 102 7472ft 161kts
17-Feb-20 12:57 34.279673 -118.991930 102 7472ft 161kts
17-Feb-20 12:58 34.270118 -118.938789 102 7472ft 161kts
17-Feb-20 12:59 34.260611 -118.885857 102 7472ft 161kts
17-Feb-20 13:00 34.251083 -118.832754 102 7472ft 161kts
17-Feb-20 13:01 34.241549 -118.779569 102 7472ft 161kts
17-Feb-20 13:02 34.234605 -118.726102 97 7472ft 161kts
17-Feb-20 13:03 34.228187 -118.672285 97 7472ft 161kts
17-Feb-20 13:04 34.220778 -118.618891 99 7490ft 161kts
17-Feb-20 13:05 34.212849 -118.565478 99 7491ft 163kts
17-Feb-20 13:06 34.204719 -118.511568 102 7490ft 163kts
17-Feb-20 13:07 34.194417 -118.458111 102 7490ft 163kts
17-Feb-20 13:08 34.184128 -118.404836 102 7490ft 163kts
17-Feb-20 13:09 34.173814 -118.351381 102 7490ft 163kts
17-Feb-20 13:10 34.163654 -118.298671 103 7490ft 163kts
17-Feb-20 13:11 34.153411 -118.245480 103 7490ft 163kts
17-Feb-20 13:12 34.143170 -118.192254 103 7490ft 163kts
17-Feb-20 13:13 34.132904 -118.138838 103 7490ft 163kts
17-Feb-20 13:14 34.122686 -118.085627 103 7490ft 163kts
17-Feb-20 13:15 34.112455 -118.032292 102 7490ft 163kts
17-Feb-20 13:16 34.102248 -117.979036 102 7490ft 163kts
17-Feb-20 13:17 34.092051 -117.925780 102 7490ft 163kts
17-Feb-20 13:18 34.081837 -117.872384 102 7490ft 163kts
17-Feb-20 13:19 34.071673 -117.819197 102 7490ft 163kts
17-Feb-20 13:20 34.061509 -117.765954 102 7490ft 163kts
17-Feb-20 13:21 34.051339 -117.712632 102 7490ft 163kts
17-Feb-20 13:22 34.041180 -117.659319 102 7490ft 163kts
17-Feb-20 13:23 34.031057 -117.606143 102 7490ft 163kts
17-Feb-20 13:24 34.020897 -117.552715 102 7490ft 163kts
17-Feb-20 13:25 34.010897 -117.500138 102 7059ft 161kts
17-Feb-20 13:26 34.003408 -117.446987 98 6357ft 160kts
17-Feb-20 13:27 33.996576 -117.394265 98 5659ft 159kts
17-Feb-20 13:28 33.990171 -117.344676 98 5488ft 138kts
17-Feb-20 13:29 33.985060 -117.299988 95 5490ft 132kts
17-Feb-20 13:30 33.981373 -117.256287 95 5516ft 129kts
17-Feb-20 13:31 33.977724 -117.212920 95 5505ft 131kts
17-Feb-20 13:32 33.972519 -117.166270 99 5116ft 145kts
17-Feb-20 13:33 33.965589 -117.117889 99 4718ft 147kts
17-Feb-20 13:34 33.957655 -117.069489 101 4318ft 147kts
17-Feb-20 13:35 33.949353 -117.021495 101 4017ft 140kts
17-Feb-20 13:36 33.943326 -116.974991 96 3764ft 141kts
17-Feb-20 13:37 33.940416 -116.927790 91 3519ft 138kts
17-Feb-20 13:38 33.939294 -116.882998 91 3517ft 130kts
17-Feb-20 13:39 33.938214 -116.839437 91 3518ft 129kts
17-Feb-20 13:40 33.937044 -116.792061 91 3519ft 156kts
17-Feb-20 13:41 33.934553 -116.738984 96 3518ft 159kts
17-Feb-20 13:42 33.927145 -116.687124 102 3517ft 154kts
17-Feb-20 13:43 33.914518 -116.637362 114 3161ft 155kts
17-Feb-20 13:44 33.893609 -116.602513 133 2502ft 97kts
17-Feb-20 13:45 33.874562 -116.579045 135 1918ft 97kts
17-Feb-20 13:46 33.854313 -116.557040 140 1522ft 96kts
17-Feb-20 13:47 33.832823 -116.537310 142 1433ft 97kts
17-Feb-20 13:48 33.811562 -116.519784 146 1392ft 90kts
17-Feb-20 13:49 33.808264 -116.497031 27 1013ft 72kts
17-Feb-20 13:50 33.823709 -116.502428 326 407ft 40kts
17-Feb-20 13:51 33.825484 -116.502623 107 410ft 5kts
17-Feb-20 13:52 33.824077 -116.500623 64 404ft 10kts
17-Feb-20 13:53 33.823961 -116.498446 140 399ft 10kts
17-Feb-20 13:54 33.823397 -116.498356 59 398ft 0kts

Navigation Log

Ident Type
Flight plan parsing failed, navigation log unavailable